sensor_id;sensor_type;location;lat;lon;timestamp;temperature;humidity
12708;DHT22;6418;50.824;4.718;2022-08-21T00:02:17;15.50;99.90
12708;DHT22;6418;50.824;4.718;2022-08-21T00:04:44;15.40;99.90
12708;DHT22;6418;50.824;4.718;2022-08-21T00:07:11;15.40;99.90
12708;DHT22;6418;50.824;4.718;2022-08-21T00:09:38;15.30;99.90
12708;DHT22;6418;50.824;4.718;2022-08-21T00:12:07;15.30;99.90
12708;DHT22;6418;50.824;4.718;2022-08-21T00:14:34;15.30;99.90
12708;DHT22;6418;50.824;4.718;2022-08-21T00:17:02;15.20;99.90
12708;DHT22;6418;50.824;4.718;2022-08-21T00:19:30;15.20;99.90
12708;DHT22;6418;50.824;4.718;2022-08-21T00:21:57;15.10;99.90
12708;DHT22;6418;50.824;4.718;2022-08-21T00:24:25;15.00;99.90
12708;DHT22;6418;50.824;4.718;2022-08-21T00:26:52;15.00;99.90
12708;DHT22;6418;50.824;4.718;2022-08-21T00:29:20;15.00;99.90
12708;DHT22;6418;50.824;4.718;2022-08-21T00:31:47;15.00;99.90
12708;DHT22;6418;50.824;4.718;2022-08-21T00:34:14;15.00;99.90
12708;DHT22;6418;50.824;4.718;2022-08-21T00:36:41;15.00;99.90
12708;DHT22;6418;50.824;4.718;2022-08-21T00:39:08;14.90;99.90
12708;DHT22;6418;50.824;4.718;2022-08-21T00:41:37;14.90;99.90
12708;DHT22;6418;50.824;4.718;2022-08-21T00:44:06;14.90;99.90
12708;DHT22;6418;50.824;4.718;2022-08-21T00:46:35;14.90;99.90
12708;DHT22;6418;50.824;4.718;2022-08-21T00:49:02;14.80;99.90
12708;DHT22;6418;50.824;4.718;2022-08-21T00:51:35;14.80;99.90
12708;DHT22;6418;50.824;4.718;2022-08-21T00:54:03;14.80;99.90
12708;DHT22;6418;50.824;4.718;2022-08-21T00:56:30;14.80;99.90
12708;DHT22;6418;50.824;4.718;2022-08-21T00:58:58;14.70;99.90
12708;DHT22;6418;50.824;4.718;2022-08-21T01:01:26;14.70;99.90
12708;DHT22;6418;50.824;4.718;2022-08-21T01:03:55;14.70;99.90
12708;DHT22;6418;50.824;4.718;2022-08-21T01:06:22;14.60;99.90
12708;DHT22;6418;50.824;4.718;2022-08-21T01:08:49;14.60;99.90
12708;DHT22;6418;50.824;4.718;2022-08-21T01:11:16;14.60;99.90
12708;DHT22;6418;50.824;4.718;2022-08-21T01:13:43;14.60;99.90
12708;DHT22;6418;50.824;4.718;2022-08-21T01:16:13;14.50;99.90
12708;DHT22;6418;50.824;4.718;2022-08-21T01:18:42;14.50;99.90
12708;DHT22;6418;50.824;4.718;2022-08-21T01:21:14;14.50;99.90
12708;DHT22;6418;50.824;4.718;2022-08-21T01:23:44;14.40;99.90
12708;DHT22;6418;50.824;4.718;2022-08-21T01:26:12;14.40;99.90
12708;DHT22;6418;50.824;4.718;2022-08-21T01:28:44;14.40;99.90
12708;DHT22;6418;50.824;4.718;2022-08-21T01:31:14;14.30;99.90
12708;DHT22;6418;50.824;4.718;2022-08-21T01:33:41;14.30;99.90
12708;DHT22;6418;50.824;4.718;2022-08-21T01:36:08;14.30;99.90
12708;DHT22;6418;50.824;4.718;2022-08-21T01:38:37;14.30;99.90
12708;DHT22;6418;50.824;4.718;2022-08-21T01:41:04;14.30;99.90
12708;DHT22;6418;50.824;4.718;2022-08-21T01:43:31;14.20;99.90
12708;DHT22;6418;50.824;4.718;2022-08-21T01:45:58;14.20;99.90
12708;DHT22;6418;50.824;4.718;2022-08-21T01:48:25;14.20;99.90
12708;DHT22;6418;50.824;4.718;2022-08-21T01:50:51;14.20;99.90
12708;DHT22;6418;50.824;4.718;2022-08-21T01:53:18;14.20;99.90
12708;DHT22;6418;50.824;4.718;2022-08-21T01:55:47;14.10;99.90
12708;DHT22;6418;50.824;4.718;2022-08-21T01:58:14;14.10;99.90
12708;DHT22;6418;50.824;4.718;2022-08-21T02:00:40;14.00;99.90
12708;DHT22;6418;50.824;4.718;2022-08-21T02:03:07;14.00;99.90
12708;DHT22;6418;50.824;4.718;2022-08-21T02:05:34;14.00;99.90
12708;DHT22;6418;50.824;4.718;2022-08-21T02:08:02;13.90;99.90
12708;DHT22;6418;50.824;4.718;2022-08-21T02:10:31;13.90;99.90
12708;DHT22;6418;50.824;4.718;2022-08-21T02:13:00;13.80;99.90
12708;DHT22;6418;50.824;4.718;2022-08-21T02:15:27;13.80;99.90
12708;DHT22;6418;50.824;4.718;2022-08-21T02:17:57;13.80;99.90
12708;DHT22;6418;50.824;4.718;2022-08-21T02:20:26;13.80;99.90
12708;DHT22;6418;50.824;4.718;2022-08-21T02:22:53;13.70;99.90
12708;DHT22;6418;50.824;4.718;2022-08-21T02:25:21;13.70;99.90
12708;DHT22;6418;50.824;4.718;2022-08-21T02:27:49;13.70;99.90
12708;DHT22;6418;50.824;4.718;2022-08-21T02:30:20;13.60;99.90
12708;DHT22;6418;50.824;4.718;2022-08-21T02:32:47;13.60;99.90
12708;DHT22;6418;50.824;4.718;2022-08-21T02:35:15;13.60;99.90
12708;DHT22;6418;50.824;4.718;2022-08-21T02:37:48;13.60;99.90
12708;DHT22;6418;50.824;4.718;2022-08-21T02:40:17;13.60;99.90
12708;DHT22;6418;50.824;4.718;2022-08-21T02:42:45;13.50;99.90
12708;DHT22;6418;50.824;4.718;2022-08-21T02:45:12;13.50;99.90
12708;DHT22;6418;50.824;4.718;2022-08-21T02:47:47;13.50;99.90
12708;DHT22;6418;50.824;4.718;2022-08-21T02:50:18;13.50;99.90
12708;DHT22;6418;50.824;4.718;2022-08-21T02:52:45;13.50;99.90
12708;DHT22;6418;50.824;4.718;2022-08-21T02:55:12;13.50;99.90
12708;DHT22;6418;50.824;4.718;2022-08-21T02:57:39;13.40;99.90
12708;DHT22;6418;50.824;4.718;2022-08-21T03:00:08;13.40;99.90
12708;DHT22;6418;50.824;4.718;2022-08-21T03:02:36;13.40;99.90
12708;DHT22;6418;50.824;4.718;2022-08-21T03:05:05;13.30;99.90
12708;DHT22;6418;50.824;4.718;2022-08-21T03:07:32;13.30;99.90
12708;DHT22;6418;50.824;4.718;2022-08-21T03:10:00;13.30;99.90
12708;DHT22;6418;50.824;4.718;2022-08-21T03:12:27;13.30;99.90
12708;DHT22;6418;50.824;4.718;2022-08-21T03:14:54;13.30;99.90
12708;DHT22;6418;50.824;4.718;2022-08-21T03:17:21;13.20;99.90
12708;DHT22;6418;50.824;4.718;2022-08-21T03:19:48;13.20;99.90
12708;DHT22;6418;50.824;4.718;2022-08-21T03:22:16;13.20;99.90
12708;DHT22;6418;50.824;4.718;2022-08-21T03:24:43;13.20;99.90
12708;DHT22;6418;50.824;4.718;2022-08-21T03:27:10;13.20;99.90
12708;DHT22;6418;50.824;4.718;2022-08-21T03:29:38;13.20;99.90
12708;DHT22;6418;50.824;4.718;2022-08-21T03:32:06;13.10;99.90
12708;DHT22;6418;50.824;4.718;2022-08-21T03:34:34;13.00;99.90
12708;DHT22;6418;50.824;4.718;2022-08-21T03:37:02;13.00;99.90
12708;DHT22;6418;50.824;4.718;2022-08-21T03:39:30;13.00;99.90
12708;DHT22;6418;50.824;4.718;2022-08-21T03:41:57;12.90;99.90
12708;DHT22;6418;50.824;4.718;2022-08-21T03:44:25;12.90;99.90
12708;DHT22;6418;50.824;4.718;2022-08-21T03:46:54;12.90;99.90
12708;DHT22;6418;50.824;4.718;2022-08-21T03:49:21;12.90;99.90
12708;DHT22;6418;50.824;4.718;2022-08-21T03:51:48;12.90;99.90
12708;DHT22;6418;50.824;4.718;2022-08-21T03:54:15;12.80;99.90
12708;DHT22;6418;50.824;4.718;2022-08-21T03:56:44;12.80;99.90
12708;DHT22;6418;50.824;4.718;2022-08-21T03:59:11;12.80;99.90
12708;DHT22;6418;50.824;4.718;2022-08-21T04:01:38;12.80;99.90
12708;DHT22;6418;50.824;4.718;2022-08-21T04:04:05;12.80;99.90
12708;DHT22;6418;50.824;4.718;2022-08-21T04:06:32;12.80;99.90
12708;DHT22;6418;50.824;4.718;2022-08-21T04:08:59;12.80;99.90
12708;DHT22;6418;50.824;4.718;2022-08-21T04:11:26;12.80;99.90
12708;DHT22;6418;50.824;4.718;2022-08-21T04:13:54;12.80;99.90
12708;DHT22;6418;50.824;4.718;2022-08-21T04:16:21;12.80;99.90
12708;DHT22;6418;50.824;4.718;2022-08-21T04:18:48;12.80;99.90
12708;DHT22;6418;50.824;4.718;2022-08-21T04:21:15;12.80;99.90
12708;DHT22;6418;50.824;4.718;2022-08-21T04:23:42;12.70;99.90
12708;DHT22;6418;50.824;4.718;2022-08-21T04:26:09;12.70;99.90
12708;DHT22;6418;50.824;4.718;2022-08-21T04:28:36;12.70;99.90
12708;DHT22;6418;50.824;4.718;2022-08-21T04:31:05;12.70;99.90
12708;DHT22;6418;50.824;4.718;2022-08-21T04:33:32;12.70;99.90
12708;DHT22;6418;50.824;4.718;2022-08-21T04:35:59;12.70;99.90
12708;DHT22;6418;50.824;4.718;2022-08-21T04:38:26;12.60;99.90
12708;DHT22;6418;50.824;4.718;2022-08-21T04:40:53;12.60;99.90
12708;DHT22;6418;50.824;4.718;2022-08-21T04:43:20;12.70;99.90
12708;DHT22;6418;50.824;4.718;2022-08-21T04:45:49;12.60;99.90
12708;DHT22;6418;50.824;4.718;2022-08-21T04:48:21;12.70;99.90
12708;DHT22;6418;50.824;4.718;2022-08-21T04:50:52;12.70;99.90
12708;DHT22;6418;50.824;4.718;2022-08-21T04:53:26;12.70;99.90
12708;DHT22;6418;50.824;4.718;2022-08-21T04:55:54;12.70;99.90
12708;DHT22;6418;50.824;4.718;2022-08-21T04:58:26;12.70;99.90
12708;DHT22;6418;50.824;4.718;2022-08-21T05:00:54;12.70;99.90
12708;DHT22;6418;50.824;4.718;2022-08-21T05:03:24;12.80;99.90
12708;DHT22;6418;50.824;4.718;2022-08-21T05:05:51;12.70;99.90
12708;DHT22;6418;50.824;4.718;2022-08-21T05:08:20;12.70;99.90
12708;DHT22;6418;50.824;4.718;2022-08-21T05:10:48;12.80;99.90
12708;DHT22;6418;50.824;4.718;2022-08-21T05:13:16;12.80;99.90
12708;DHT22;6418;50.824;4.718;2022-08-21T05:15:43;12.80;99.90
12708;DHT22;6418;50.824;4.718;2022-08-21T05:18:10;12.80;99.90
12708;DHT22;6418;50.824;4.718;2022-08-21T05:20:39;12.80;99.90
12708;DHT22;6418;50.824;4.718;2022-08-21T05:23:07;12.90;99.90
12708;DHT22;6418;50.824;4.718;2022-08-21T05:25:34;12.90;99.90
12708;DHT22;6418;50.824;4.718;2022-08-21T05:28:02;12.90;99.90
12708;DHT22;6418;50.824;4.718;2022-08-21T05:30:29;12.90;99.90
12708;DHT22;6418;50.824;4.718;2022-08-21T05:32:56;13.00;99.90
12708;DHT22;6418;50.824;4.718;2022-08-21T05:35:25;13.00;99.90
12708;DHT22;6418;50.824;4.718;2022-08-21T05:37:53;13.00;99.90
12708;DHT22;6418;50.824;4.718;2022-08-21T05:40:20;13.10;99.90
12708;DHT22;6418;50.824;4.718;2022-08-21T05:42:47;13.10;99.90
12708;DHT22;6418;50.824;4.718;2022-08-21T05:45:15;13.10;99.90
12708;DHT22;6418;50.824;4.718;2022-08-21T05:47:42;13.20;99.90
12708;DHT22;6418;50.824;4.718;2022-08-21T05:50:09;13.20;99.90
12708;DHT22;6418;50.824;4.718;2022-08-21T05:52:36;13.30;99.90
12708;DHT22;6418;50.824;4.718;2022-08-21T05:55:06;13.40;99.90
12708;DHT22;6418;50.824;4.718;2022-08-21T05:57:33;13.30;99.90
12708;DHT22;6418;50.824;4.718;2022-08-21T06:00:05;13.40;99.90
12708;DHT22;6418;50.824;4.718;2022-08-21T06:02:35;13.50;99.90
12708;DHT22;6418;50.824;4.718;2022-08-21T06:05:02;13.50;99.90
12708;DHT22;6418;50.824;4.718;2022-08-21T06:07:29;13.60;99.90
12708;DHT22;6418;50.824;4.718;2022-08-21T06:09:56;13.60;99.90
12708;DHT22;6418;50.824;4.718;2022-08-21T06:12:24;13.70;99.90
12708;DHT22;6418;50.824;4.718;2022-08-21T06:14:51;13.70;99.90
12708;DHT22;6418;50.824;4.718;2022-08-21T06:17:19;13.80;99.90
12708;DHT22;6418;50.824;4.718;2022-08-21T06:19:51;13.80;99.90
12708;DHT22;6418;50.824;4.718;2022-08-21T06:22:18;13.90;99.90
12708;DHT22;6418;50.824;4.718;2022-08-21T06:24:45;14.00;99.90
12708;DHT22;6418;50.824;4.718;2022-08-21T06:27:12;14.00;99.90
12708;DHT22;6418;50.824;4.718;2022-08-21T06:29:40;14.10;99.90
12708;DHT22;6418;50.824;4.718;2022-08-21T06:32:10;14.20;99.90
12708;DHT22;6418;50.824;4.718;2022-08-21T06:34:38;14.20;99.90
12708;DHT22;6418;50.824;4.718;2022-08-21T06:37:05;14.30;99.90
12708;DHT22;6418;50.824;4.718;2022-08-21T06:39:33;14.40;99.90
12708;DHT22;6418;50.824;4.718;2022-08-21T06:42:00;14.50;99.90
12708;DHT22;6418;50.824;4.718;2022-08-21T06:44:27;14.50;99.90
12708;DHT22;6418;50.824;4.718;2022-08-21T06:46:55;14.60;99.90
12708;DHT22;6418;50.824;4.718;2022-08-21T06:49:22;14.70;99.90
12708;DHT22;6418;50.824;4.718;2022-08-21T06:51:49;14.70;99.90
12708;DHT22;6418;50.824;4.718;2022-08-21T06:54:16;14.80;99.90
12708;DHT22;6418;50.824;4.718;2022-08-21T06:56:43;14.90;99.90
12708;DHT22;6418;50.824;4.718;2022-08-21T06:59:10;15.00;99.90
12708;DHT22;6418;50.824;4.718;2022-08-21T07:01:37;15.00;99.90
12708;DHT22;6418;50.824;4.718;2022-08-21T07:04:06;15.10;99.90
12708;DHT22;6418;50.824;4.718;2022-08-21T07:06:32;15.30;99.90
12708;DHT22;6418;50.824;4.718;2022-08-21T07:08:59;15.30;99.90
12708;DHT22;6418;50.824;4.718;2022-08-21T07:11:27;15.40;99.90
12708;DHT22;6418;50.824;4.718;2022-08-21T07:13:54;15.40;99.90
12708;DHT22;6418;50.824;4.718;2022-08-21T07:16:22;15.50;99.90
12708;DHT22;6418;50.824;4.718;2022-08-21T07:18:49;15.60;99.90
12708;DHT22;6418;50.824;4.718;2022-08-21T07:21:17;15.70;99.90
12708;DHT22;6418;50.824;4.718;2022-08-21T07:23:46;15.80;99.90
12708;DHT22;6418;50.824;4.718;2022-08-21T07:26:15;15.90;99.90
12708;DHT22;6418;50.824;4.718;2022-08-21T07:28:43;15.90;99.90
12708;DHT22;6418;50.824;4.718;2022-08-21T07:31:10;16.00;99.90
12708;DHT22;6418;50.824;4.718;2022-08-21T07:33:40;16.10;99.90
12708;DHT22;6418;50.824;4.718;2022-08-21T07:36:07;16.20;99.90
12708;DHT22;6418;50.824;4.718;2022-08-21T07:38:36;16.30;99.90
12708;DHT22;6418;50.824;4.718;2022-08-21T07:41:09;16.40;99.90
12708;DHT22;6418;50.824;4.718;2022-08-21T07:43:37;16.60;99.90
12708;DHT22;6418;50.824;4.718;2022-08-21T07:46:04;16.60;99.90
12708;DHT22;6418;50.824;4.718;2022-08-21T07:48:31;16.80;99.90
12708;DHT22;6418;50.824;4.718;2022-08-21T07:50:59;16.80;99.90
12708;DHT22;6418;50.824;4.718;2022-08-21T07:53:28;16.90;99.90
12708;DHT22;6418;50.824;4.718;2022-08-21T07:55:58;17.00;99.90
12708;DHT22;6418;50.824;4.718;2022-08-21T07:58:25;17.10;99.90
12708;DHT22;6418;50.824;4.718;2022-08-21T08:00:52;17.10;99.90
12708;DHT22;6418;50.824;4.718;2022-08-21T08:03:19;17.20;99.90
12708;DHT22;6418;50.824;4.718;2022-08-21T08:05:46;17.20;99.90
12708;DHT22;6418;50.824;4.718;2022-08-21T08:08:13;17.30;99.90
12708;DHT22;6418;50.824;4.718;2022-08-21T08:10:40;17.40;99.90
12708;DHT22;6418;50.824;4.718;2022-08-21T08:13:09;17.60;99.90
12708;DHT22;6418;50.824;4.718;2022-08-21T08:15:36;17.70;99.90
12708;DHT22;6418;50.824;4.718;2022-08-21T08:18:03;17.80;99.90
12708;DHT22;6418;50.824;4.718;2022-08-21T08:20:30;17.80;99.90
12708;DHT22;6418;50.824;4.718;2022-08-21T08:22:58;18.00;99.90
12708;DHT22;6418;50.824;4.718;2022-08-21T08:25:26;18.10;99.90
12708;DHT22;6418;50.824;4.718;2022-08-21T08:27:53;18.20;99.90
12708;DHT22;6418;50.824;4.718;2022-08-21T08:30:22;18.30;99.90
12708;DHT22;6418;50.824;4.718;2022-08-21T08:32:49;18.30;99.90
12708;DHT22;6418;50.824;4.718;2022-08-21T08:35:17;18.40;99.90
12708;DHT22;6418;50.824;4.718;2022-08-21T08:37:44;18.50;99.90
12708;DHT22;6418;50.824;4.718;2022-08-21T08:40:14;18.60;99.90
12708;DHT22;6418;50.824;4.718;2022-08-21T08:42:44;18.60;99.90
12708;DHT22;6418;50.824;4.718;2022-08-21T08:45:15;18.60;99.90
12708;DHT22;6418;50.824;4.718;2022-08-21T08:47:47;18.70;99.90
12708;DHT22;6418;50.824;4.718;2022-08-21T08:50:19;18.70;99.90
12708;DHT22;6418;50.824;4.718;2022-08-21T08:52:49;18.70;99.90
12708;DHT22;6418;50.824;4.718;2022-08-21T08:55:26;18.70;99.90
12708;DHT22;6418;50.824;4.718;2022-08-21T08:57:56;18.80;99.90
12708;DHT22;6418;50.824;4.718;2022-08-21T09:00:24;18.80;99.90
12708;DHT22;6418;50.824;4.718;2022-08-21T09:02:55;18.80;99.90
12708;DHT22;6418;50.824;4.718;2022-08-21T09:05:26;18.80;99.90
12708;DHT22;6418;50.824;4.718;2022-08-21T09:08:12;18.90;99.90
12708;DHT22;6418;50.824;4.718;2022-08-21T09:10:50;18.90;99.90
12708;DHT22;6418;50.824;4.718;2022-08-21T09:13:25;19.00;99.90
12708;DHT22;6418;50.824;4.718;2022-08-21T09:16:03;19.00;99.90
12708;DHT22;6418;50.824;4.718;2022-08-21T09:18:39;19.10;99.90
12708;DHT22;6418;50.824;4.718;2022-08-21T09:21:16;19.10;99.90
12708;DHT22;6418;50.824;4.718;2022-08-21T09:23:52;19.20;99.90
12708;DHT22;6418;50.824;4.718;2022-08-21T09:26:24;19.20;99.90
12708;DHT22;6418;50.824;4.718;2022-08-21T09:28:54;19.20;99.90
12708;DHT22;6418;50.824;4.718;2022-08-21T09:31:24;19.30;99.90
12708;DHT22;6418;50.824;4.718;2022-08-21T09:33:59;19.40;99.90
12708;DHT22;6418;50.824;4.718;2022-08-21T09:36:35;19.40;99.90
12708;DHT22;6418;50.824;4.718;2022-08-21T09:39:04;19.50;99.90
12708;DHT22;6418;50.824;4.718;2022-08-21T09:41:33;19.50;99.90
12708;DHT22;6418;50.824;4.718;2022-08-21T09:44:00;19.50;99.90
12708;DHT22;6418;50.824;4.718;2022-08-21T09:46:28;19.60;99.90
12708;DHT22;6418;50.824;4.718;2022-08-21T09:48:58;19.70;99.90
12708;DHT22;6418;50.824;4.718;2022-08-21T09:51:27;19.80;99.90
12708;DHT22;6418;50.824;4.718;2022-08-21T09:54:07;19.80;99.90
12708;DHT22;6418;50.824;4.718;2022-08-21T09:56:39;19.90;99.90
12708;DHT22;6418;50.824;4.718;2022-08-21T09:59:28;20.10;99.90
12708;DHT22;6418;50.824;4.718;2022-08-21T10:01:57;20.20;99.90
12708;DHT22;6418;50.824;4.718;2022-08-21T10:04:30;20.40;99.90
12708;DHT22;6418;50.824;4.718;2022-08-21T10:07:07;20.60;99.90
12708;DHT22;6418;50.824;4.718;2022-08-21T10:09:35;20.70;99.90
12708;DHT22;6418;50.824;4.718;2022-08-21T10:12:13;20.90;99.90
12708;DHT22;6418;50.824;4.718;2022-08-21T10:14:50;21.00;99.90
12708;DHT22;6418;50.824;4.718;2022-08-21T10:17:27;21.00;99.90
12708;DHT22;6418;50.824;4.718;2022-08-21T10:20:03;21.10;99.90
12708;DHT22;6418;50.824;4.718;2022-08-21T10:22:38;21.20;99.90
12708;DHT22;6418;50.824;4.718;2022-08-21T10:25:14;21.20;99.90
12708;DHT22;6418;50.824;4.718;2022-08-21T10:27:51;21.30;99.90
12708;DHT22;6418;50.824;4.718;2022-08-21T10:30:29;21.30;99.90
12708;DHT22;6418;50.824;4.718;2022-08-21T10:33:13;21.20;99.90
12708;DHT22;6418;50.824;4.718;2022-08-21T10:35:50;21.30;99.90
12708;DHT22;6418;50.824;4.718;2022-08-21T10:38:45;21.30;99.90
12708;DHT22;6418;50.824;4.718;2022-08-21T10:41:20;21.30;99.90
12708;DHT22;6418;50.824;4.718;2022-08-21T10:43:58;21.20;99.90
12708;DHT22;6418;50.824;4.718;2022-08-21T10:46:37;21.20;99.90
12708;DHT22;6418;50.824;4.718;2022-08-21T10:49:22;21.30;99.90
12708;DHT22;6418;50.824;4.718;2022-08-21T10:51:56;21.30;99.90
12708;DHT22;6418;50.824;4.718;2022-08-21T10:54:34;21.40;99.90
12708;DHT22;6418;50.824;4.718;2022-08-21T10:57:11;21.50;99.90
12708;DHT22;6418;50.824;4.718;2022-08-21T10:59:44;21.50;99.90
12708;DHT22;6418;50.824;4.718;2022-08-21T11:02:17;21.60;99.90
12708;DHT22;6418;50.824;4.718;2022-08-21T11:04:50;21.60;99.90
12708;DHT22;6418;50.824;4.718;2022-08-21T11:07:25;21.60;99.90
12708;DHT22;6418;50.824;4.718;2022-08-21T11:09:56;21.70;99.90
12708;DHT22;6418;50.824;4.718;2022-08-21T11:12:27;21.80;99.90
12708;DHT22;6418;50.824;4.718;2022-08-21T11:15:00;21.80;99.90
12708;DHT22;6418;50.824;4.718;2022-08-21T11:17:32;21.80;99.90
12708;DHT22;6418;50.824;4.718;2022-08-21T11:20:07;21.80;99.90
12708;DHT22;6418;50.824;4.718;2022-08-21T11:22:43;21.70;99.90
12708;DHT22;6418;50.824;4.718;2022-08-21T11:25:16;21.80;99.90
12708;DHT22;6418;50.824;4.718;2022-08-21T11:27:46;22.00;99.90
12708;DHT22;6418;50.824;4.718;2022-08-21T11:30:16;22.10;99.90
12708;DHT22;6418;50.824;4.718;2022-08-21T11:33:06;22.20;99.90
12708;DHT22;6418;50.824;4.718;2022-08-21T11:35:39;22.30;99.90
12708;DHT22;6418;50.824;4.718;2022-08-21T11:38:20;22.40;99.90
12708;DHT22;6418;50.824;4.718;2022-08-21T11:41:02;22.40;99.90
12708;DHT22;6418;50.824;4.718;2022-08-21T11:43:36;22.50;99.90
12708;DHT22;6418;50.824;4.718;2022-08-21T11:46:11;22.60;99.90
12708;DHT22;6418;50.824;4.718;2022-08-21T11:48:47;22.70;99.90
12708;DHT22;6418;50.824;4.718;2022-08-21T11:51:19;22.80;99.90
12708;DHT22;6418;50.824;4.718;2022-08-21T11:54:04;22.90;99.90
12708;DHT22;6418;50.824;4.718;2022-08-21T11:56:35;22.90;99.90
12708;DHT22;6418;50.824;4.718;2022-08-21T11:59:11;23.00;99.90
12708;DHT22;6418;50.824;4.718;2022-08-21T12:01:41;23.00;99.90
12708;DHT22;6418;50.824;4.718;2022-08-21T12:04:17;23.00;99.90
12708;DHT22;6418;50.824;4.718;2022-08-21T12:06:45;23.10;99.90
12708;DHT22;6418;50.824;4.718;2022-08-21T12:09:31;23.10;99.90
12708;DHT22;6418;50.824;4.718;2022-08-21T12:12:05;23.10;99.90
12708;DHT22;6418;50.824;4.718;2022-08-21T12:14:38;23.20;99.90
12708;DHT22;6418;50.824;4.718;2022-08-21T12:17:08;23.20;99.90
12708;DHT22;6418;50.824;4.718;2022-08-21T12:19:43;23.30;99.90
12708;DHT22;6418;50.824;4.718;2022-08-21T12:22:13;23.20;99.90
12708;DHT22;6418;50.824;4.718;2022-08-21T12:24:43;23.20;99.90
12708;DHT22;6418;50.824;4.718;2022-08-21T12:27:21;23.00;99.90
12708;DHT22;6418;50.824;4.718;2022-08-21T12:29:55;23.10;99.90
12708;DHT22;6418;50.824;4.718;2022-08-21T12:32:26;23.20;99.90
12708;DHT22;6418;50.824;4.718;2022-08-21T12:35:14;23.40;99.90
12708;DHT22;6418;50.824;4.718;2022-08-21T12:37:45;23.50;99.90
12708;DHT22;6418;50.824;4.718;2022-08-21T12:40:22;23.60;99.90
12708;DHT22;6418;50.824;4.718;2022-08-21T12:42:56;23.60;99.90
12708;DHT22;6418;50.824;4.718;2022-08-21T12:45:30;23.60;99.90
12708;DHT22;6418;50.824;4.718;2022-08-21T12:48:00;23.60;99.90
12708;DHT22;6418;50.824;4.718;2022-08-21T12:50:35;22.80;99.90
12708;DHT22;6418;50.824;4.718;2022-08-21T12:53:07;23.60;99.90
12708;DHT22;6418;50.824;4.718;2022-08-21T12:55:42;23.70;99.90
12708;DHT22;6418;50.824;4.718;2022-08-21T12:58:17;23.60;99.90
12708;DHT22;6418;50.824;4.718;2022-08-21T13:00:49;23.70;99.90
12708;DHT22;6418;50.824;4.718;2022-08-21T13:03:19;23.60;99.90
12708;DHT22;6418;50.824;4.718;2022-08-21T13:05:53;23.70;99.90
12708;DHT22;6418;50.824;4.718;2022-08-21T13:08:25;23.70;99.90
12708;DHT22;6418;50.824;4.718;2022-08-21T13:11:03;23.60;99.90
12708;DHT22;6418;50.824;4.718;2022-08-21T13:13:32;24.40;99.90
12708;DHT22;6418;50.824;4.718;2022-08-21T13:16:02;23.90;99.90
12708;DHT22;6418;50.824;4.718;2022-08-21T13:18:34;24.00;99.90
12708;DHT22;6418;50.824;4.718;2022-08-21T13:21:07;24.10;99.90
12708;DHT22;6418;50.824;4.718;2022-08-21T13:23:38;24.20;99.90
12708;DHT22;6418;50.824;4.718;2022-08-21T13:26:13;24.30;99.90
12708;DHT22;6418;50.824;4.718;2022-08-21T13:28:48;24.30;99.90
12708;DHT22;6418;50.824;4.718;2022-08-21T13:31:19;25.70;99.90
12708;DHT22;6418;50.824;4.718;2022-08-21T13:33:48;24.60;99.90
12708;DHT22;6418;50.824;4.718;2022-08-21T13:36:20;24.70;99.90
12708;DHT22;6418;50.824;4.718;2022-08-21T13:38:55;24.80;99.90
12708;DHT22;6418;50.824;4.718;2022-08-21T13:41:26;25.00;99.90
12708;DHT22;6418;50.824;4.718;2022-08-21T13:43:58;24.90;99.90
12708;DHT22;6418;50.824;4.718;2022-08-21T13:46:28;25.00;99.90
12708;DHT22;6418;50.824;4.718;2022-08-21T13:48:59;25.00;99.90
12708;DHT22;6418;50.824;4.718;2022-08-21T13:51:26;25.00;99.90
12708;DHT22;6418;50.824;4.718;2022-08-21T13:53:56;25.00;99.90
12708;DHT22;6418;50.824;4.718;2022-08-21T13:56:26;24.80;99.90
12708;DHT22;6418;50.824;4.718;2022-08-21T13:58:55;24.70;99.90
12708;DHT22;6418;50.824;4.718;2022-08-21T14:01:25;24.70;99.90
12708;DHT22;6418;50.824;4.718;2022-08-21T14:03:56;24.70;99.90
12708;DHT22;6418;50.824;4.718;2022-08-21T14:06:26;24.70;99.90
12708;DHT22;6418;50.824;4.718;2022-08-21T14:08:56;24.70;99.90
12708;DHT22;6418;50.824;4.718;2022-08-21T14:11:26;24.70;99.90
12708;DHT22;6418;50.824;4.718;2022-08-21T14:14:00;24.70;99.90
12708;DHT22;6418;50.824;4.718;2022-08-21T14:16:41;24.60;99.90
12708;DHT22;6418;50.824;4.718;2022-08-21T14:19:11;24.60;99.90
12708;DHT22;6418;50.824;4.718;2022-08-21T14:21:44;24.60;99.90
12708;DHT22;6418;50.824;4.718;2022-08-21T14:24:12;24.50;99.90
12708;DHT22;6418;50.824;4.718;2022-08-21T14:26:48;24.70;99.90
12708;DHT22;6418;50.824;4.718;2022-08-21T14:29:18;24.80;99.90
12708;DHT22;6418;50.824;4.718;2022-08-21T14:31:51;24.80;99.90
12708;DHT22;6418;50.824;4.718;2022-08-21T14:34:18;24.90;99.90
12708;DHT22;6418;50.824;4.718;2022-08-21T14:36:45;24.90;99.90
12708;DHT22;6418;50.824;4.718;2022-08-21T14:39:12;25.00;99.90
12708;DHT22;6418;50.824;4.718;2022-08-21T14:41:39;25.10;99.90
12708;DHT22;6418;50.824;4.718;2022-08-21T14:44:09;25.10;99.90
12708;DHT22;6418;50.824;4.718;2022-08-21T14:46:37;25.00;99.90
12708;DHT22;6418;50.824;4.718;2022-08-21T14:49:04;25.00;99.90
12708;DHT22;6418;50.824;4.718;2022-08-21T14:51:31;25.00;99.90
12708;DHT22;6418;50.824;4.718;2022-08-21T14:53:58;25.00;99.90
12708;DHT22;6418;50.824;4.718;2022-08-21T14:56:25;25.00;99.90
12708;DHT22;6418;50.824;4.718;2022-08-21T14:58:53;25.00;99.90
12708;DHT22;6418;50.824;4.718;2022-08-21T15:01:22;25.00;99.90
12708;DHT22;6418;50.824;4.718;2022-08-21T15:03:49;25.00;99.90
12708;DHT22;6418;50.824;4.718;2022-08-21T15:06:17;24.90;99.90
12708;DHT22;6418;50.824;4.718;2022-08-21T15:08:46;25.00;99.90
12708;DHT22;6418;50.824;4.718;2022-08-21T15:11:17;24.90;99.90
12708;DHT22;6418;50.824;4.718;2022-08-21T15:13:45;25.00;99.90
12708;DHT22;6418;50.824;4.718;2022-08-21T15:16:13;25.00;99.90
12708;DHT22;6418;50.824;4.718;2022-08-21T15:18:41;25.00;99.90
12708;DHT22;6418;50.824;4.718;2022-08-21T15:21:08;25.10;99.90
12708;DHT22;6418;50.824;4.718;2022-08-21T15:23:35;25.10;99.90
12708;DHT22;6418;50.824;4.718;2022-08-21T15:26:03;25.10;99.90
12708;DHT22;6418;50.824;4.718;2022-08-21T15:28:30;25.10;99.90
12708;DHT22;6418;50.824;4.718;2022-08-21T15:30:59;25.20;99.90
12708;DHT22;6418;50.824;4.718;2022-08-21T15:33:26;25.20;99.90
12708;DHT22;6418;50.824;4.718;2022-08-21T15:35:55;25.10;99.90
12708;DHT22;6418;50.824;4.718;2022-08-21T15:38:22;25.10;99.90
12708;DHT22;6418;50.824;4.718;2022-08-21T15:40:49;25.10;99.90
12708;DHT22;6418;50.824;4.718;2022-08-21T15:43:23;25.10;99.90
12708;DHT22;6418;50.824;4.718;2022-08-21T15:45:50;25.00;99.90
12708;DHT22;6418;50.824;4.718;2022-08-21T15:48:17;24.90;99.90
12708;DHT22;6418;50.824;4.718;2022-08-21T15:50:45;24.90;99.90
12708;DHT22;6418;50.824;4.718;2022-08-21T15:53:13;24.90;99.90
12708;DHT22;6418;50.824;4.718;2022-08-21T15:55:40;24.90;99.90
12708;DHT22;6418;50.824;4.718;2022-08-21T15:58:12;24.90;99.90
12708;DHT22;6418;50.824;4.718;2022-08-21T16:00:40;24.80;99.90
12708;DHT22;6418;50.824;4.718;2022-08-21T16:03:11;24.90;99.90